createdAt,value
2018-05-26T00:01:23.777Z,18.10
2018-05-26T00:03:51.337Z,18.10
2018-05-26T00:06:19.340Z,18.10
2018-05-26T00:08:47.685Z,18.00
2018-05-26T00:11:15.241Z,18.00
2018-05-26T00:13:42.722Z,18.00
2018-05-26T00:16:10.968Z,18.00
2018-05-26T00:18:38.432Z,18.00
2018-05-26T00:21:05.908Z,18.00
2018-05-26T00:23:34.135Z,17.90
2018-05-26T00:26:01.598Z,17.90
2018-05-26T00:28:29.075Z,17.90
2018-05-26T00:30:56.532Z,17.90
2018-05-26T00:33:24.015Z,17.90
2018-05-26T00:35:52.264Z,17.80
2018-05-26T00:38:20.568Z,17.80
2018-05-26T00:40:48.817Z,17.80
2018-05-26T00:43:16.272Z,17.80
2018-05-26T00:45:43.728Z,17.80
2018-05-26T00:48:11.200Z,17.80
2018-05-26T00:50:38.681Z,17.80
2018-05-26T00:53:06.916Z,17.70
2018-05-26T00:55:34.376Z,17.70
2018-05-26T00:58:01.854Z,17.70
2018-05-26T01:00:29.308Z,17.60
2018-05-26T01:02:57.539Z,17.60
2018-05-26T01:05:25.005Z,17.60
2018-05-26T01:07:52.460Z,17.60
2018-05-26T01:10:20.740Z,17.60
2018-05-26T01:12:48.208Z,17.50
2018-05-26T01:15:15.673Z,17.50
2018-05-26T01:17:43.128Z,17.60
2018-05-26T01:20:10.597Z,17.40
2018-05-26T01:22:38.825Z,17.40
2018-05-26T01:25:06.287Z,17.40
2018-05-26T01:27:33.770Z,17.30
2018-05-26T01:30:01.223Z,17.30
2018-05-26T01:32:28.688Z,17.30
2018-05-26T01:34:56.147Z,17.30
2018-05-26T01:37:23.606Z,17.30
2018-05-26T01:39:51.072Z,17.30
2018-05-26T01:42:19.306Z,17.20
2018-05-26T01:44:46.771Z,17.20
2018-05-26T01:47:14.232Z,17.20
2018-05-26T01:49:41.688Z,17.20
2018-05-26T01:52:09.274Z,17.20
2018-05-26T01:54:37.518Z,17.10
2018-05-26T01:57:04.988Z,17.10
2018-05-26T01:59:32.453Z,17.10
2018-05-26T02:01:59.916Z,17.10
2018-05-26T02:04:27.372Z,17.00
2018-05-26T02:06:54.845Z,17.00
2018-05-26T02:09:23.076Z,17.00
2018-05-26T02:11:50.532Z,17.00
2018-05-26T02:14:18.005Z,17.00
2018-05-26T02:16:46.264Z,16.90
2018-05-26T02:19:13.725Z,16.90
2018-05-26T02:21:41.201Z,16.90
2018-05-26T02:24:08.652Z,16.90
2018-05-26T02:26:36.110Z,16.90
2018-05-26T02:29:03.576Z,16.90
2018-05-26T02:31:31.808Z,16.80
2018-05-26T02:33:59.264Z,16.80
2018-05-26T02:36:26.738Z,16.80
2018-05-26T02:38:54.193Z,16.80
2018-05-26T02:41:21.676Z,16.80
2018-05-26T02:43:49.150Z,16.80
2018-05-26T02:46:17.388Z,16.70
2018-05-26T02:48:44.896Z,16.70
2018-05-26T02:51:12.348Z,16.70
2018-05-26T02:53:39.816Z,16.70
2018-05-26T02:56:07.279Z,16.60
2018-05-26T02:58:34.744Z,16.60
2018-05-26T03:01:02.223Z,16.60
2018-05-26T03:03:29.681Z,16.60
2018-05-26T03:06:03.149Z,16.60
2018-05-26T03:08:36.292Z,16.60
2018-05-26T03:11:09.425Z,16.50
2018-05-26T03:13:42.629Z,16.50
2018-05-26T03:16:12.069Z,16.50
2018-05-26T03:18:39.533Z,16.50
2018-05-26T03:21:06.997Z,16.40
2018-05-26T03:23:34.463Z,16.40
2018-05-26T03:26:02.770Z,16.40
2018-05-26T03:28:30.227Z,16.40
2018-05-26T03:30:57.696Z,16.40
2018-05-26T03:33:25.155Z,16.40
2018-05-26T03:35:52.629Z,16.40
2018-05-26T03:38:20.799Z,16.40
2018-05-26T03:40:48.269Z,16.40
2018-05-26T03:43:15.729Z,16.40
2018-05-26T03:45:43.183Z,16.40
2018-05-26T03:48:10.744Z,16.40
2018-05-26T03:50:38.304Z,16.40
2018-05-26T03:53:05.868Z,16.40
2018-05-26T03:55:45.212Z,16.40
2018-05-26T03:58:25.312Z,16.40
2018-05-26T04:00:52.793Z,16.40
2018-05-26T04:03:20.245Z,16.40
2018-05-26T04:05:47.725Z,16.40
2018-05-26T04:08:15.180Z,16.40
2018-05-26T04:10:42.656Z,16.40
2018-05-26T04:13:10.885Z,16.40
2018-05-26T04:15:38.364Z,16.40
2018-05-26T04:18:05.844Z,16.50
2018-05-26T04:20:34.055Z,16.60
2018-05-26T04:23:01.553Z,16.60
2018-05-26T04:25:29.107Z,16.60
2018-05-26T04:27:56.554Z,16.70
2018-05-26T04:30:24.017Z,16.60
2018-05-26T04:32:51.579Z,16.70
2018-05-26T04:35:19.876Z,16.70
2018-05-26T04:37:47.328Z,16.70
2018-05-26T04:40:14.800Z,16.80
2018-05-26T04:42:43.037Z,16.90
2018-05-26T04:45:10.506Z,16.90
2018-05-26T04:47:39.480Z,17.00
2018-05-26T04:50:06.937Z,17.00
2018-05-26T04:52:34.520Z,17.10
2018-05-26T04:55:01.973Z,17.10
2018-05-26T04:57:29.444Z,17.10
2018-05-26T04:59:57.669Z,17.30
2018-05-26T05:02:25.135Z,17.30
2018-05-26T05:04:52.596Z,17.40
2018-05-26T05:07:20.056Z,17.50
2018-05-26T05:09:47.523Z,17.50
2018-05-26T05:12:14.993Z,17.60
2018-05-26T05:14:42.464Z,17.70
2018-05-26T05:17:10.495Z,17.80
2018-05-26T05:19:37.939Z,17.90
2018-05-26T05:22:05.736Z,18.10
2018-05-26T05:24:33.197Z,18.20
2018-05-26T05:27:00.694Z,18.30
2018-05-26T05:29:28.186Z,18.40
2018-05-26T05:31:57.719Z,18.50
2018-05-26T05:34:25.227Z,18.60
2018-05-26T05:36:52.728Z,18.70
2018-05-26T05:39:21.026Z,19.00
2018-05-26T05:41:49.252Z,19.10
2018-05-26T05:44:16.708Z,19.10
2018-05-26T05:46:44.249Z,19.20
2018-05-26T05:49:12.623Z,19.40
2018-05-26T05:51:40.096Z,19.80
2018-05-26T05:54:07.556Z,20.60
2018-05-26T05:56:35.055Z,21.60
2018-05-26T05:59:02.504Z,22.30
2018-05-26T06:01:30.231Z,23.10
2018-05-26T06:03:57.714Z,24.00
2018-05-26T06:06:25.219Z,24.90
2018-05-26T06:08:53.037Z,25.40
2018-05-26T06:11:20.571Z,26.20
2018-05-26T06:13:48.077Z,26.80
2018-05-26T06:16:16.314Z,28.10
2018-05-26T06:18:43.776Z,28.00
2018-05-26T06:21:11.249Z,28.00
2018-05-26T06:23:38.716Z,28.20
2018-05-26T06:26:06.181Z,28.20
2018-05-26T06:28:34.425Z,28.50
2018-05-26T06:31:01.883Z,28.40
2018-05-26T06:33:29.337Z,28.40
2018-05-26T06:35:56.841Z,27.90
2018-05-26T06:38:24.265Z,28.20
2018-05-26T06:40:51.747Z,28.30
2018-05-26T06:43:20.009Z,29.10
2018-05-26T06:45:47.559Z,29.10
2018-05-26T06:48:15.032Z,29.10
2018-05-26T06:50:43.296Z,28.90
2018-05-26T06:53:10.849Z,28.90
2018-05-26T06:55:38.312Z,29.10
2018-05-26T06:58:05.784Z,29.20
2018-05-26T07:00:34.021Z,28.90
2018-05-26T07:03:01.495Z,28.90
2018-05-26T07:05:28.961Z,28.30
2018-05-26T07:07:56.417Z,28.20
2018-05-26T07:10:23.892Z,28.00
2018-05-26T07:12:52.155Z,28.10
2018-05-26T07:15:20.376Z,27.80
2018-05-26T07:17:47.847Z,27.90
2018-05-26T07:20:15.327Z,27.90
2018-05-26T07:22:43.209Z,27.80
2018-05-26T07:25:11.448Z,27.80
2018-05-26T07:27:38.913Z,27.80
2018-05-26T07:30:06.386Z,27.50
2018-05-26T07:32:33.861Z,27.50
2018-05-26T07:35:02.076Z,27.10
2018-05-26T07:37:29.549Z,27.10
2018-05-26T07:39:57.029Z,27.10
2018-05-26T07:42:24.491Z,26.70
2018-05-26T07:44:51.961Z,26.70
2018-05-26T07:47:20.272Z,26.30
2018-05-26T07:49:47.683Z,26.30
2018-05-26T07:52:15.929Z,25.80
2018-05-26T07:54:43.396Z,25.80
2018-05-26T07:57:10.855Z,25.90
2018-05-26T07:59:39.829Z,26.10
2018-05-26T08:02:07.297Z,26.10
2018-05-26T08:04:34.745Z,26.00
2018-05-26T08:07:02.227Z,26.20
2018-05-26T08:09:29.692Z,26.40
2018-05-26T08:11:57.927Z,26.60
2018-05-26T08:14:25.406Z,26.60
2018-05-26T08:16:52.873Z,26.70
2018-05-26T08:19:20.337Z,26.50
2018-05-26T08:21:47.794Z,26.50
2018-05-26T08:24:15.294Z,26.50
2018-05-26T08:26:42.745Z,26.60
2018-05-26T08:29:10.216Z,26.40
2018-05-26T08:31:38.213Z,26.40
2018-05-26T08:34:05.679Z,26.40
2018-05-26T08:36:33.135Z,26.50
2018-05-26T08:39:00.615Z,26.60
2018-05-26T08:41:28.842Z,26.80
2018-05-26T08:43:57.059Z,26.70
2018-05-26T08:46:25.300Z,26.90
2018-05-26T08:48:52.771Z,26.90
2018-05-26T08:51:20.465Z,27.10
2018-05-26T08:53:48.698Z,27.20
2018-05-26T08:56:16.164Z,27.20
2018-05-26T08:58:43.629Z,27.30
2018-05-26T09:01:11.341Z,27.40
2018-05-26T09:03:38.804Z,27.50
2018-05-26T09:06:06.266Z,27.50
2018-05-26T09:08:33.732Z,27.50
2018-05-26T09:11:01.196Z,27.40
2018-05-26T09:13:28.659Z,27.60
2018-05-26T09:15:56.136Z,27.70
2018-05-26T09:18:23.596Z,27.90
2018-05-26T09:20:51.058Z,28.00
2018-05-26T09:23:19.287Z,28.20
2018-05-26T09:25:46.774Z,28.20
2018-05-26T09:28:14.240Z,28.30
2018-05-26T09:30:41.693Z,28.50
2018-05-26T09:33:09.175Z,28.60
2018-05-26T09:35:36.769Z,28.50
2018-05-26T09:38:04.232Z,28.60
2018-05-26T09:40:31.725Z,28.60
2018-05-26T09:42:59.184Z,28.60
2018-05-26T09:45:26.636Z,28.80
2018-05-26T09:47:54.101Z,28.80
2018-05-26T09:50:22.328Z,29.00
2018-05-26T09:52:49.796Z,28.90
2018-05-26T09:55:17.264Z,28.90
2018-05-26T09:57:44.733Z,29.10
2018-05-26T10:00:12.204Z,29.10
2018-05-26T10:02:40.424Z,29.50
2018-05-26T10:05:07.900Z,29.50
2018-05-26T10:07:35.351Z,29.70
2018-05-26T10:10:02.812Z,29.70
2018-05-26T10:12:30.276Z,29.80
2018-05-26T10:14:57.724Z,29.90
2018-05-26T10:17:25.189Z,30.10
2018-05-26T10:19:52.707Z,30.20
2018-05-26T10:22:20.148Z,30.20
2018-05-26T10:24:48.375Z,30.30
2018-05-26T10:27:15.848Z,30.20
2018-05-26T10:29:43.300Z,30.30
2018-05-26T10:32:10.787Z,30.40
2018-05-26T10:34:38.243Z,30.40
2018-05-26T10:37:06.454Z,30.50
2018-05-26T10:39:33.914Z,30.50
2018-05-26T10:42:01.383Z,30.60
2018-05-26T10:44:28.837Z,30.70
2018-05-26T10:46:56.287Z,30.80
2018-05-26T10:49:23.752Z,30.80
2018-05-26T10:51:51.222Z,30.50
2018-05-26T10:54:19.204Z,30.50
2018-05-26T10:56:46.703Z,30.50
2018-05-26T10:59:14.165Z,30.50
2018-05-26T11:01:41.611Z,30.60
2018-05-26T11:04:09.076Z,31.10
2018-05-26T11:06:46.466Z,31.40
2018-05-26T11:09:13.881Z,31.20
2018-05-26T11:11:41.348Z,31.30
2018-05-26T11:14:09.585Z,31.40
2018-05-26T11:16:37.055Z,31.40
2018-05-26T11:19:04.548Z,31.60
2018-05-26T11:21:31.971Z,31.90
2018-05-26T11:23:59.453Z,32.00
2018-05-26T11:26:26.895Z,32.30
2018-05-26T11:28:54.400Z,32.30
2018-05-26T11:31:21.807Z,32.30
2018-05-26T11:33:49.268Z,32.60
2018-05-26T11:36:16.729Z,32.80
2018-05-26T11:38:44.958Z,33.30
2018-05-26T11:41:12.416Z,33.20
2018-05-26T11:43:39.893Z,33.50
2018-05-26T11:46:07.380Z,33.50
2018-05-26T11:48:35.608Z,33.30
2018-05-26T11:51:03.073Z,33.30
2018-05-26T11:53:30.543Z,33.40
2018-05-26T11:55:58.004Z,33.70
2018-05-26T11:58:25.469Z,33.90
2018-05-26T12:00:53.807Z,33.90
2018-05-26T12:03:21.288Z,33.90
2018-05-26T12:05:48.739Z,34.20
2018-05-26T12:08:16.199Z,34.30
2018-05-26T12:10:43.690Z,34.60
2018-05-26T12:13:11.913Z,34.90
2018-05-26T12:15:39.373Z,34.90
2018-05-26T12:18:06.868Z,34.60
2018-05-26T12:20:34.324Z,34.60
2018-05-26T12:23:01.787Z,34.90
2018-05-26T12:25:30.105Z,34.60
2018-05-26T12:27:58.300Z,34.80
2018-05-26T12:30:25.778Z,34.80
2018-05-26T12:32:53.232Z,34.70
2018-05-26T12:35:20.700Z,34.80
2018-05-26T12:37:48.164Z,34.90
2018-05-26T12:40:16.417Z,34.20
2018-05-26T12:42:43.875Z,34.10
2018-05-26T12:45:11.349Z,34.40
2018-05-26T12:47:40.371Z,34.00
2018-05-26T12:50:07.824Z,34.00
2018-05-26T12:52:35.297Z,33.90
2018-05-26T12:55:02.744Z,33.70
2018-05-26T12:57:30.212Z,33.80
2018-05-26T12:59:57.668Z,33.50
2018-05-26T13:02:25.128Z,33.40
2018-05-26T13:04:52.609Z,33.50
2018-05-26T13:07:21.308Z,33.50
2018-05-26T13:09:48.764Z,33.30
2018-05-26T13:12:16.224Z,33.50
2018-05-26T13:14:43.685Z,33.70
2018-05-26T13:17:11.144Z,33.60
2018-05-26T13:19:38.600Z,33.90
2018-05-26T13:22:06.068Z,33.90
2018-05-26T13:24:34.299Z,33.90
2018-05-26T13:27:01.766Z,33.80
2018-05-26T13:29:29.240Z,33.70
2018-05-26T13:31:56.695Z,33.60
2018-05-26T13:34:24.159Z,33.40
2018-05-26T13:36:51.670Z,33.50
2018-05-26T13:39:19.866Z,33.40
2018-05-26T13:41:47.333Z,33.40
2018-05-26T13:44:14.793Z,33.30
2018-05-26T13:46:42.257Z,33.70
2018-05-26T13:49:09.774Z,33.80
2018-05-26T13:51:37.284Z,34.00
2018-05-26T13:54:04.726Z,34.00
2018-05-26T13:56:32.144Z,34.00
2018-05-26T13:58:59.624Z,34.10
2018-05-26T14:01:27.077Z,34.10
2018-05-26T14:03:54.537Z,33.90
2018-05-26T14:06:22.008Z,33.50
2018-05-26T14:08:49.463Z,33.50
2018-05-26T14:11:16.927Z,33.60
2018-05-26T14:13:44.387Z,33.70
2018-05-26T14:16:11.867Z,33.70
2018-05-26T14:18:40.092Z,33.80
2018-05-26T14:21:07.564Z,33.80
2018-05-26T14:23:35.020Z,33.70
2018-05-26T14:26:02.476Z,33.70
2018-05-26T14:28:29.972Z,33.50
2018-05-26T14:30:58.184Z,33.00
2018-05-26T14:33:25.649Z,33.00
2018-05-26T14:35:53.105Z,33.00
2018-05-26T14:38:20.581Z,32.90
2018-05-26T14:40:48.044Z,33.10
2018-05-26T14:43:15.496Z,33.10
2018-05-26T14:45:42.960Z,32.90
2018-05-26T14:48:10.428Z,33.00
2018-05-26T14:50:38.660Z,32.80
2018-05-26T14:53:06.885Z,33.00
2018-05-26T14:55:35.112Z,33.00
2018-05-26T14:58:02.572Z,33.00
2018-05-26T15:00:30.036Z,32.90
2018-05-26T15:02:57.480Z,33.00
2018-05-26T15:05:24.949Z,33.00
2018-05-26T15:07:52.401Z,33.00
2018-05-26T15:10:20.597Z,33.00
2018-05-26T15:12:48.078Z,33.00
2018-05-26T15:15:15.511Z,33.10
2018-05-26T15:17:42.984Z,33.20
2018-05-26T15:20:12.096Z,33.30
2018-05-26T15:22:39.560Z,33.30
2018-05-26T15:25:07.000Z,33.40
2018-05-26T15:27:35.232Z,33.90
2018-05-26T15:30:03.519Z,34.00
2018-05-26T15:32:31.692Z,34.00
2018-05-26T15:34:59.160Z,34.10
2018-05-26T15:37:26.616Z,33.80
2018-05-26T15:39:54.070Z,33.70
2018-05-26T15:42:21.551Z,34.10
2018-05-26T15:44:49.954Z,34.50
2018-05-26T15:47:17.413Z,34.50
2018-05-26T15:49:44.869Z,34.90
2018-05-26T15:52:12.331Z,35.10
2018-05-26T15:54:39.791Z,35.10
2018-05-26T15:57:07.260Z,35.00
2018-05-26T15:59:34.724Z,34.90
2018-05-26T16:02:02.191Z,34.70
2018-05-26T16:04:29.653Z,34.60
2018-05-26T16:06:57.117Z,34.50
2018-05-26T16:09:24.584Z,34.60
2018-05-26T16:11:52.812Z,34.90
2018-05-26T16:14:20.285Z,34.90
2018-05-26T16:16:47.739Z,34.90
2018-05-26T16:19:15.197Z,34.80
2018-05-26T16:21:42.664Z,34.50
2018-05-26T16:24:10.124Z,34.30
2018-05-26T16:26:37.645Z,34.00
2018-05-26T16:29:05.116Z,34.10
2018-05-26T16:31:32.596Z,33.90
2018-05-26T16:34:00.056Z,33.90
2018-05-26T16:36:27.536Z,33.70
2018-05-26T16:38:55.803Z,33.30
2018-05-26T16:41:24.053Z,33.30
2018-05-26T16:43:51.519Z,33.20
2018-05-26T16:46:19.021Z,33.30
2018-05-26T16:48:46.490Z,33.30
2018-05-26T16:51:13.948Z,33.20
2018-05-26T16:53:41.422Z,33.30
2018-05-26T16:56:08.980Z,33.40
2018-05-26T16:58:36.482Z,33.80
2018-05-26T17:01:03.907Z,33.90
2018-05-26T17:03:31.372Z,33.90
2018-05-26T17:05:58.844Z,34.10
2018-05-26T17:08:26.292Z,34.00
2018-05-26T17:10:53.762Z,33.90
2018-05-26T17:13:21.984Z,34.00
2018-05-26T17:15:49.461Z,34.00
2018-05-26T17:18:16.918Z,34.00
2018-05-26T17:20:44.390Z,34.00
2018-05-26T17:23:11.867Z,33.90
2018-05-26T17:25:40.095Z,33.70
2018-05-26T17:28:07.575Z,33.70
2018-05-26T17:30:35.055Z,33.70
2018-05-26T17:33:03.289Z,32.90
2018-05-26T17:35:30.777Z,32.90
2018-05-26T17:37:58.264Z,32.80
2018-05-26T17:40:25.753Z,32.60
2018-05-26T17:42:53.220Z,32.40
2018-05-26T17:45:20.700Z,32.30
2018-05-26T17:47:48.173Z,32.20
2018-05-26T17:50:16.393Z,31.90
2018-05-26T17:52:43.860Z,31.80
2018-05-26T17:55:11.308Z,31.50
2018-05-26T17:57:39.650Z,31.40
2018-05-26T18:00:07.886Z,30.90
2018-05-26T18:02:35.345Z,30.90
2018-05-26T18:05:02.811Z,30.80
2018-05-26T18:07:30.269Z,30.50
2018-05-26T18:09:57.732Z,30.40
2018-05-26T18:12:25.976Z,30.30
2018-05-26T18:14:53.434Z,30.20
2018-05-26T18:17:20.896Z,30.20
2018-05-26T18:19:48.369Z,30.20
2018-05-26T18:22:15.828Z,30.00
2018-05-26T18:24:43.296Z,30.00
2018-05-26T18:27:12.641Z,29.70
2018-05-26T18:29:40.100Z,29.60
2018-05-26T18:32:07.565Z,29.60
2018-05-26T18:34:35.016Z,29.60
2018-05-26T18:37:02.496Z,29.30
2018-05-26T18:39:29.971Z,29.00
2018-05-26T18:41:57.428Z,28.90
2018-05-26T18:44:24.893Z,28.80
2018-05-26T18:46:53.108Z,28.70
2018-05-26T18:49:20.568Z,28.70
2018-05-26T18:51:48.033Z,28.60
2018-05-26T18:54:15.514Z,28.60
2018-05-26T18:56:42.965Z,28.50
2018-05-26T18:59:10.431Z,28.40
2018-05-26T19:01:37.896Z,28.30
2018-05-26T19:04:05.360Z,28.20
2018-05-26T19:06:33.594Z,28.10
2018-05-26T19:09:01.044Z,28.10
2018-05-26T19:11:28.509Z,27.90
2018-05-26T19:13:55.964Z,27.80
2018-05-26T19:16:23.429Z,27.70
2018-05-26T19:18:50.888Z,27.60
2018-05-26T19:21:18.365Z,27.40
2018-05-26T19:23:45.844Z,27.30
2018-05-26T19:26:14.081Z,27.10
2018-05-26T19:28:41.552Z,27.10
2018-05-26T19:31:09.005Z,26.90
2018-05-26T19:33:36.464Z,26.90
2018-05-26T19:36:03.932Z,26.80
2018-05-26T19:38:31.402Z,26.70
2018-05-26T19:40:59.612Z,26.50
2018-05-26T19:43:27.076Z,26.40
2018-05-26T19:45:54.536Z,26.40
2018-05-26T19:48:22.012Z,26.20
2018-05-26T19:50:49.485Z,26.10
2018-05-26T19:53:16.953Z,26.00
2018-05-26T19:55:45.176Z,25.80
2018-05-26T19:58:12.630Z,25.80
2018-05-26T20:00:40.098Z,25.70
2018-05-26T20:03:07.565Z,25.60
2018-05-26T20:05:35.036Z,25.50
2018-05-26T20:08:02.500Z,25.50
2018-05-26T20:10:29.973Z,25.40
2018-05-26T20:12:58.195Z,25.20
2018-05-26T20:15:25.664Z,25.10
2018-05-26T20:17:53.138Z,25.10
2018-05-26T20:20:20.576Z,24.90
2018-05-26T20:22:48.037Z,24.80
2018-05-26T20:25:16.284Z,24.60
2018-05-26T20:27:43.745Z,24.50
2018-05-26T20:30:11.214Z,24.40
2018-05-26T20:32:39.307Z,24.40
2018-05-26T20:35:06.764Z,24.30
2018-05-26T20:37:34.236Z,24.30
2018-05-26T20:40:01.700Z,24.20
2018-05-26T20:42:29.953Z,24.00
2018-05-26T20:44:57.408Z,24.00
2018-05-26T20:47:24.869Z,24.00
2018-05-26T20:49:52.339Z,23.90
2018-05-26T20:52:19.805Z,23.90
2018-05-26T20:54:48.023Z,23.60
2018-05-26T20:57:15.496Z,23.60
2018-05-26T20:59:42.957Z,23.60
2018-05-26T21:02:10.413Z,23.60
2018-05-26T21:04:37.885Z,23.40
2018-05-26T21:07:05.342Z,23.40
2018-05-26T21:09:32.804Z,23.30
2018-05-26T21:12:00.260Z,23.20
2018-05-26T21:14:27.731Z,23.20
2018-05-26T21:16:55.948Z,23.10
2018-05-26T21:19:23.420Z,23.00
2018-05-26T21:21:50.887Z,23.00
2018-05-26T21:24:18.352Z,22.90
2018-05-26T21:26:45.817Z,22.80
2018-05-26T21:29:13.281Z,22.80
2018-05-26T21:31:40.756Z,22.70
2018-05-26T21:34:08.984Z,22.50
2018-05-26T21:36:36.448Z,22.50
2018-05-26T21:39:03.916Z,22.50
2018-05-26T21:41:31.392Z,22.50
2018-05-26T21:43:59.628Z,22.40
2018-05-26T21:46:27.089Z,22.40
2018-05-26T21:48:54.560Z,22.30
2018-05-26T21:51:22.012Z,22.20
2018-05-26T21:53:49.475Z,22.10
2018-05-26T21:56:16.944Z,21.90
2018-05-26T21:58:44.413Z,21.90
2018-05-26T22:01:12.640Z,21.80
2018-05-26T22:03:40.100Z,21.80
2018-05-26T22:06:07.579Z,21.80
2018-05-26T22:08:35.034Z,21.70
2018-05-26T22:11:02.499Z,21.60
2018-05-26T22:13:29.954Z,21.60
2018-05-26T22:15:57.418Z,21.60
2018-05-26T22:18:25.641Z,21.60
2018-05-26T22:20:53.131Z,21.60
2018-05-26T22:23:20.575Z,21.50
2018-05-26T22:25:48.029Z,21.50
2018-05-26T22:28:15.501Z,21.50
2018-05-26T22:30:42.957Z,21.40
2018-05-26T22:33:10.412Z,21.40
2018-05-26T22:35:37.904Z,21.40
2018-05-26T22:38:05.340Z,21.40
2018-05-26T22:40:32.809Z,21.40
2018-05-26T22:43:01.036Z,21.30
2018-05-26T22:45:28.497Z,21.30
2018-05-26T22:47:55.960Z,21.30
2018-05-26T22:50:23.428Z,21.30
2018-05-26T22:52:50.889Z,21.20
2018-05-26T22:55:18.335Z,21.20
2018-05-26T22:57:45.805Z,21.10
2018-05-26T23:00:13.264Z,21.10
2018-05-26T23:02:40.740Z,21.10
2018-05-26T23:05:08.960Z,21.00
2018-05-26T23:07:36.412Z,20.90
2018-05-26T23:10:03.889Z,20.90
2018-05-26T23:12:31.353Z,20.90
2018-05-26T23:14:58.800Z,20.80
2018-05-26T23:17:27.031Z,20.70
2018-05-26T23:19:54.491Z,20.70
2018-05-26T23:22:21.944Z,20.70
2018-05-26T23:24:49.502Z,20.70
2018-05-26T23:27:17.715Z,20.60
2018-05-26T23:29:45.180Z,20.60
2018-05-26T23:32:12.648Z,20.60
2018-05-26T23:34:40.106Z,20.50
2018-05-26T23:37:07.570Z,20.50
2018-05-26T23:39:35.030Z,20.50
2018-05-26T23:42:02.483Z,20.50
2018-05-26T23:44:29.940Z,20.50
2018-05-26T23:46:57.412Z,20.40
2018-05-26T23:49:25.637Z,20.30
2018-05-26T23:51:53.096Z,20.30
2018-05-26T23:54:21.323Z,20.20
2018-05-26T23:56:49.559Z,20.20
2018-05-26T23:59:17.029Z,20.20
